createdAt,value
2016-08-11T00:00:03.411Z,54.9
2016-08-11T00:00:13.418Z,54.7
2016-08-11T00:00:23.428Z,54.4
2016-08-11T00:00:33.433Z,54.3
2016-08-11T00:00:43.434Z,54.7
2016-08-11T00:00:53.440Z,54.3
2016-08-11T00:01:03.444Z,54.6
2016-08-11T00:01:13.451Z,54.6
2016-08-11T00:01:23.455Z,54.7
2016-08-11T00:01:33.465Z,54.8
2016-08-11T00:01:43.467Z,54.6
2016-08-11T00:01:53.475Z,54.6
2016-08-11T00:02:03.487Z,54.7
2016-08-11T00:02:13.485Z,54.7
2016-08-11T00:02:23.692Z,54.6
2016-08-11T00:02:33.500Z,54.7
2016-08-11T00:02:43.502Z,54.8
2016-08-11T00:02:53.507Z,54.4
2016-08-11T00:03:03.512Z,54.5
2016-08-11T00:03:13.520Z,54.6
2016-08-11T00:03:23.525Z,54.5
2016-08-11T00:03:33.528Z,54.6
2016-08-11T00:03:43.536Z,54.6
2016-08-11T00:03:53.541Z,54.6
2016-08-11T00:04:03.548Z,54.6
2016-08-11T00:04:13.553Z,54.6
2016-08-11T00:04:23.558Z,54.5
2016-08-11T00:04:33.565Z,54.4
2016-08-11T00:04:43.569Z,54.7
2016-08-11T00:04:53.573Z,54.5
2016-08-11T00:05:03.586Z,54.5
2016-08-11T00:05:13.586Z,54.3
2016-08-11T00:05:23.591Z,54.4
2016-08-11T00:05:33.596Z,54.8
2016-08-11T00:05:43.606Z,54.4
2016-08-11T00:05:53.608Z,54.6
2016-08-11T00:06:03.625Z,54.9
2016-08-11T00:06:13.624Z,54.7
2016-08-11T00:06:23.627Z,54.7
2016-08-11T00:06:33.631Z,54.7
2016-08-11T00:06:43.640Z,54.8
2016-08-11T00:06:53.642Z,54.8
2016-08-11T00:07:03.646Z,54.7
2016-08-11T00:07:13.652Z,54.9
2016-08-11T00:07:23.660Z,54.4
2016-08-11T00:07:33.666Z,54.7
2016-08-11T00:07:43.671Z,54.8
2016-08-11T00:07:53.675Z,54.8
2016-08-11T00:08:03.683Z,54.8
2016-08-11T00:08:13.686Z,54.7
2016-08-11T00:08:23.692Z,54.9
2016-08-11T00:08:33.697Z,54.6
2016-08-11T00:08:43.704Z,54.6
2016-08-11T00:08:53.710Z,54.8
2016-08-11T00:09:03.719Z,54.8
2016-08-11T00:09:13.721Z,54.8
2016-08-11T00:09:23.726Z,54.6
2016-08-11T00:09:33.735Z,54.5
2016-08-11T00:09:43.733Z,54.5
2016-08-11T00:09:53.745Z,54.4
2016-08-11T00:10:03.749Z,54.5
2016-08-11T00:10:13.759Z,54.4
2016-08-11T00:10:23.761Z,54.5
2016-08-11T00:10:33.774Z,54.6
2016-08-11T00:10:43.770Z,54.5
2016-08-11T00:10:53.777Z,54.6
2016-08-11T00:11:03.780Z,54.7
2016-08-11T00:11:13.786Z,54.7
2016-08-11T00:11:23.793Z,54.8
2016-08-11T00:11:33.799Z,54.4
2016-08-11T00:11:43.817Z,54.9
2016-08-11T00:11:53.810Z,54.6
2016-08-11T00:12:03.815Z,54.7
2016-08-11T00:12:13.822Z,54.7
2016-08-11T00:12:23.826Z,54.7
2016-08-11T00:12:33.835Z,54.8
2016-08-11T00:12:43.838Z,54.7
2016-08-11T00:12:53.842Z,54.7
2016-08-11T00:13:03.854Z,54.9
2016-08-11T00:13:13.854Z,54.9
2016-08-11T00:13:33.868Z,54.7
2016-08-11T00:13:43.871Z,54.6
2016-08-11T00:13:53.878Z,54.6
2016-08-11T00:14:03.883Z,54.6
2016-08-11T00:14:13.888Z,54.7
2016-08-11T00:14:23.894Z,54.8
2016-08-11T00:14:33.898Z,54.6
2016-08-11T00:14:43.906Z,54.7
2016-08-11T00:14:53.909Z,54.7
2016-08-11T00:15:03.913Z,54.7
2016-08-11T00:15:13.922Z,54.8
2016-08-11T00:15:23.927Z,54.7
2016-08-11T00:15:33.933Z,54.8
2016-08-11T00:15:43.211Z,54.6
2016-08-11T00:15:53.213Z,54.7
2016-08-11T00:16:03.951Z,54.7
2016-08-11T00:16:13.230Z,54.7
2016-08-11T00:16:23.962Z,54.7
2016-08-11T00:16:33.976Z,54.7
2016-08-11T00:16:43.971Z,54.6
2016-08-11T00:16:53.976Z,54.7
2016-08-11T00:17:03.985Z,54.7
2016-08-11T00:17:13.988Z,54.7
2016-08-11T00:17:23.995Z,54.7
2016-08-11T00:17:33.998Z,54.5
2016-08-11T00:17:44.006Z,54.9
2016-08-11T00:17:54.017Z,54.9
2016-08-11T00:18:04.017Z,55
2016-08-11T00:18:14.026Z,54.9
2016-08-11T00:18:24.030Z,54.9
2016-08-11T00:18:33.304Z,54.9
2016-08-11T00:18:44.038Z,54.6
2016-08-11T00:18:53.315Z,54.5
2016-08-11T00:19:04.050Z,54.9
2016-08-11T00:19:14.057Z,54.7
2016-08-11T00:19:23.332Z,55.1
2016-08-11T00:19:34.068Z,54.7
2016-08-11T00:19:54.080Z,54.7
2016-08-11T00:20:04.085Z,54.7
2016-08-11T00:20:14.093Z,54.9
2016-08-11T00:20:24.094Z,54.8
2016-08-11T00:20:34.101Z,54.6
2016-08-11T00:20:44.107Z,54.7
2016-08-11T00:20:54.111Z,54.7
2016-08-11T00:21:04.117Z,54.7
2016-08-11T00:21:14.123Z,54.8
2016-08-11T00:21:23.400Z,54.9
2016-08-11T00:21:34.133Z,55.2
2016-08-11T00:21:44.142Z,54.9
2016-08-11T00:21:54.144Z,55.2
2016-08-11T00:22:04.149Z,54.7
2016-08-11T00:22:14.157Z,54.7
2016-08-11T00:22:24.162Z,54.9
2016-08-11T00:22:34.168Z,54.7
2016-08-11T00:22:44.173Z,54.7
2016-08-11T00:22:54.177Z,54.9
2016-08-11T00:23:04.182Z,55
2016-08-11T00:23:14.190Z,54.9
2016-08-11T00:23:24.197Z,54.9
2016-08-11T00:23:34.201Z,55.1
2016-08-11T00:23:44.216Z,54.8
2016-08-11T00:23:53.482Z,54.9
2016-08-11T00:24:04.217Z,54.9
2016-08-11T00:24:14.225Z,54.8
2016-08-11T00:24:24.230Z,54.9
2016-08-11T00:24:34.234Z,54.9
2016-08-11T00:24:44.239Z,54.9
2016-08-11T00:24:54.245Z,55.3
2016-08-11T00:25:04.252Z,55.1
2016-08-11T00:25:14.258Z,54.9
2016-08-11T00:25:24.262Z,54.8
2016-08-11T00:25:34.268Z,55.1
2016-08-11T00:25:44.273Z,55.1
2016-08-11T00:25:54.281Z,55.2
2016-08-11T00:26:04.285Z,55.2
2016-08-11T00:26:14.292Z,55.2
2016-08-11T00:26:24.297Z,55.2
2016-08-11T00:26:34.303Z,55.2
2016-08-11T00:26:44.308Z,55
2016-08-11T00:26:54.312Z,55
2016-08-11T00:27:04.318Z,55.1
2016-08-11T00:27:14.323Z,55.1
2016-08-11T00:27:24.333Z,55.1
2016-08-11T00:27:34.335Z,55
2016-08-11T00:27:43.618Z,55.2
2016-08-11T00:27:54.347Z,55.2
2016-08-11T00:28:04.353Z,55
2016-08-11T00:28:24.361Z,54.9
2016-08-11T00:28:34.369Z,55
2016-08-11T00:28:44.374Z,55.2
2016-08-11T00:28:54.380Z,55.1
2016-08-11T00:29:04.387Z,55.2
2016-08-11T00:29:14.393Z,55
2016-08-11T00:29:24.397Z,54.9
2016-08-11T00:29:34.402Z,54.9
2016-08-11T00:29:44.410Z,54.9
2016-08-11T00:29:54.416Z,54.8
2016-08-11T00:30:04.419Z,54.9
2016-08-11T00:30:14.423Z,55.3
2016-08-11T00:30:24.430Z,55.2
2016-08-11T00:30:34.436Z,55.1
2016-08-11T00:30:44.440Z,55.2
2016-08-11T00:30:54.448Z,55.1
2016-08-11T00:31:04.451Z,55.2
2016-08-11T00:31:13.730Z,54.9
2016-08-11T00:31:24.464Z,55.3
2016-08-11T00:31:34.472Z,55.2
2016-08-11T00:31:44.477Z,54.9
2016-08-11T00:31:54.478Z,54.9
2016-08-11T00:32:04.486Z,55
2016-08-11T00:32:13.761Z,54.9
2016-08-11T00:32:24.497Z,54.9
2016-08-11T00:32:34.502Z,55.1
2016-08-11T00:32:44.507Z,55.1
2016-08-11T00:32:54.514Z,54.9
2016-08-11T00:33:04.522Z,54.8
2016-08-11T00:33:14.527Z,54.8
2016-08-11T00:33:24.534Z,55.3
2016-08-11T00:33:34.537Z,55.3
2016-08-11T00:33:44.545Z,55.2
2016-08-11T00:33:54.548Z,54.8
2016-08-11T00:34:04.557Z,55.3
2016-08-11T00:34:14.564Z,55.2
2016-08-11T00:34:23.837Z,54.9
2016-08-11T00:34:34.572Z,55
2016-08-11T00:34:44.575Z,55.1
2016-08-11T00:34:54.585Z,54.9
2016-08-11T00:35:04.586Z,54.9
2016-08-11T00:35:14.593Z,54.9
2016-08-11T00:35:23.867Z,54.9
2016-08-11T00:35:34.602Z,55.2
2016-08-11T00:35:44.608Z,55.2
2016-08-11T00:35:54.616Z,54.8
2016-08-11T00:36:04.622Z,54.9
2016-08-11T00:36:13.903Z,54.9
2016-08-11T00:36:24.632Z,54.9
2016-08-11T00:36:34.638Z,54.9
2016-08-11T00:36:44.643Z,54.9
2016-08-11T00:36:54.651Z,54.9
2016-08-11T00:37:04.654Z,55
2016-08-11T00:37:14.660Z,54.9
2016-08-11T00:37:24.678Z,55.2
2016-08-11T00:37:34.673Z,55.2
2016-08-11T00:37:44.676Z,55.1
2016-08-11T00:37:54.681Z,55.2
2016-08-11T00:38:04.703Z,55
2016-08-11T00:38:14.693Z,55
2016-08-11T00:38:24.708Z,55
2016-08-11T00:38:34.708Z,55.2
2016-08-11T00:38:44.711Z,54.9
2016-08-11T00:38:54.717Z,55.3
2016-08-11T00:39:04.724Z,54.9
2016-08-11T00:39:14.731Z,54.9
2016-08-11T00:39:24.732Z,54.9
2016-08-11T00:39:34.740Z,54.9
2016-08-11T00:39:44.746Z,54.9
2016-08-11T00:39:54.749Z,54.8
2016-08-11T00:40:04.755Z,54.9
2016-08-11T00:40:14.760Z,55.1
2016-08-11T00:40:24.044Z,54.9
2016-08-11T00:40:34.771Z,54.9
2016-08-11T00:40:44.778Z,54.9
2016-08-11T00:40:54.784Z,54.9
2016-08-11T00:41:04.792Z,54.7
2016-08-11T00:41:14.793Z,54.9
2016-08-11T00:41:24.801Z,55
2016-08-11T00:41:34.808Z,55.2
2016-08-11T00:41:44.085Z,55.1
2016-08-11T00:41:54.818Z,55.1
2016-08-11T00:42:04.823Z,55.2
2016-08-11T00:42:14.833Z,54.8
2016-08-11T00:42:24.832Z,54.8
2016-08-11T00:42:34.838Z,54.9
2016-08-11T00:42:44.845Z,54.9
2016-08-11T00:42:54.856Z,54.9
2016-08-11T00:43:04.854Z,54.9
2016-08-11T00:43:14.860Z,55
2016-08-11T00:43:34.873Z,55
2016-08-11T00:43:44.878Z,55.2
2016-08-11T00:43:54.892Z,55.1
2016-08-11T00:44:04.888Z,55.1
2016-08-11T00:44:14.895Z,54.9
2016-08-11T00:44:24.900Z,54.9
2016-08-11T00:44:34.907Z,55.1
2016-08-11T00:44:44.182Z,54.9
2016-08-11T00:44:54.926Z,54.9
2016-08-11T00:45:04.923Z,54.9
2016-08-11T00:45:14.929Z,54.9
2016-08-11T00:45:24.203Z,55
2016-08-11T00:45:34.942Z,54.9
2016-08-11T00:45:44.946Z,54.9
2016-08-11T00:45:54.949Z,55
2016-08-11T00:46:04.957Z,55.1
2016-08-11T00:46:14.962Z,55.1
2016-08-11T00:46:24.967Z,55.1
2016-08-11T00:46:34.249Z,54.8
2016-08-11T00:46:44.981Z,54.9
2016-08-11T00:46:54.985Z,55.1
2016-08-11T00:47:04.989Z,55
2016-08-11T00:47:14.994Z,54.6
2016-08-11T00:47:25.002Z,54.7
2016-08-11T00:47:35.006Z,55.2
2016-08-11T00:47:45.011Z,54.6
2016-08-11T00:47:55.017Z,55.2
2016-08-11T00:48:05.028Z,54.6
2016-08-11T00:48:15.032Z,54.7
2016-08-11T00:48:25.040Z,54.9
2016-08-11T00:48:35.040Z,55.1
2016-08-11T00:48:45.046Z,54.6
2016-08-11T00:48:55.049Z,55.2
2016-08-11T00:49:05.060Z,54.9
2016-08-11T00:49:15.071Z,54.8
2016-08-11T00:49:25.069Z,54.8
2016-08-11T00:49:35.074Z,55.1
2016-08-11T00:49:45.081Z,54.7
2016-08-11T00:49:55.084Z,55.1
2016-08-11T00:50:05.092Z,54.6
2016-08-11T00:50:15.097Z,54.8
2016-08-11T00:50:25.101Z,54.7
2016-08-11T00:50:35.108Z,54.7
2016-08-11T00:50:45.116Z,55
2016-08-11T00:50:55.127Z,54.7
2016-08-11T00:51:05.124Z,54.7
2016-08-11T00:51:15.132Z,55.1
2016-08-11T00:51:24.404Z,54.6
2016-08-11T00:51:34.417Z,55.1
2016-08-11T00:51:45.148Z,54.7
2016-08-11T00:51:55.152Z,54.6
2016-08-11T00:52:05.166Z,54.7
2016-08-11T00:52:15.171Z,54.9
2016-08-11T00:52:25.169Z,54.6
2016-08-11T00:52:35.176Z,54.7
2016-08-11T00:52:45.179Z,54.7
2016-08-11T00:52:55.185Z,54.7
2016-08-11T00:53:05.191Z,54.7
2016-08-11T00:53:15.198Z,54.9
2016-08-11T00:53:25.205Z,55.1
2016-08-11T00:53:35.213Z,54.7
2016-08-11T00:53:45.214Z,55
2016-08-11T00:53:55.220Z,54.9
2016-08-11T00:54:05.227Z,55.1
2016-08-11T00:54:15.228Z,55.1
2016-08-11T00:54:25.236Z,54.9
2016-08-11T00:54:35.244Z,55.1
2016-08-11T00:54:45.249Z,54.7
2016-08-11T00:54:55.254Z,55.1
2016-08-11T00:55:05.258Z,54.6
2016-08-11T00:55:15.265Z,54.7
2016-08-11T00:55:25.269Z,54.7
2016-08-11T00:55:35.277Z,54.6
2016-08-11T00:55:45.279Z,54.7
2016-08-11T00:55:55.289Z,54.6
2016-08-11T00:56:05.295Z,54.7
2016-08-11T00:56:15.299Z,54.7
2016-08-11T00:56:25.301Z,54.7
2016-08-11T00:56:35.309Z,54.7
2016-08-11T00:56:45.315Z,54.7
2016-08-11T00:56:55.320Z,55.1
2016-08-11T00:57:05.327Z,54.8
2016-08-11T00:57:15.334Z,54.8
2016-08-11T00:57:25.336Z,54.8
2016-08-11T00:57:35.342Z,54.8
2016-08-11T00:57:45.348Z,54.7
2016-08-11T00:57:55.355Z,55
2016-08-11T00:58:05.359Z,54.8
2016-08-11T00:58:15.364Z,54.6
2016-08-11T00:58:35.383Z,54.7
2016-08-11T00:58:45.381Z,54.6
2016-08-11T00:58:55.388Z,54.7
2016-08-11T00:59:05.391Z,55.2
2016-08-11T00:59:15.400Z,54.7
2016-08-11T00:59:25.405Z,55.2
2016-08-11T00:59:35.412Z,54.9
2016-08-11T00:59:45.417Z,54.6
2016-08-11T00:59:55.420Z,55.1
2016-08-11T01:00:05.426Z,54.7
2016-08-11T01:00:15.434Z,54.7
2016-08-11T01:00:25.437Z,54.7
2016-08-11T01:00:35.440Z,54.6
2016-08-11T01:00:45.448Z,54.7
2016-08-11T01:00:55.456Z,55
2016-08-11T01:01:05.459Z,54.8
2016-08-11T01:01:14.738Z,54.8
2016-08-11T01:01:25.470Z,54.8
2016-08-11T01:01:35.477Z,54.8
2016-08-11T01:01:44.749Z,54.8
2016-08-11T01:01:55.490Z,54.7
2016-08-11T01:02:05.493Z,54.7
2016-08-11T01:02:15.499Z,54.7
2016-08-11T01:02:25.506Z,54.6
2016-08-11T01:02:35.511Z,54.9
2016-08-11T01:02:45.521Z,55.1
2016-08-11T01:02:55.521Z,55.1
2016-08-11T01:03:05.526Z,55.1
2016-08-11T01:03:15.533Z,55
2016-08-11T01:03:25.542Z,54.9
2016-08-11T01:03:35.544Z,55.1
2016-08-11T01:03:45.548Z,54.9
2016-08-11T01:03:55.557Z,55.1
2016-08-11T01:04:05.559Z,55.1
2016-08-11T01:04:15.566Z,54.9
2016-08-11T01:04:25.570Z,55.1
2016-08-11T01:04:35.579Z,54.9
2016-08-11T01:04:45.587Z,54.5
2016-08-11T01:04:55.588Z,54.7
2016-08-11T01:05:05.593Z,55
2016-08-11T01:05:15.599Z,54.6
2016-08-11T01:05:25.610Z,54.7
2016-08-11T01:05:35.611Z,54.6
2016-08-11T01:05:45.623Z,54.8
2016-08-11T01:05:55.621Z,54.6
2016-08-11T01:06:05.629Z,55.2
2016-08-11T01:06:15.633Z,55.2
2016-08-11T01:06:25.639Z,55.2
2016-08-11T01:06:35.645Z,55.2
2016-08-11T01:06:45.652Z,54.8
2016-08-11T01:06:55.656Z,55.1
2016-08-11T01:07:05.661Z,54.9
2016-08-11T01:07:15.668Z,54.9
2016-08-11T01:07:25.673Z,54.9
2016-08-11T01:07:35.682Z,55.2
2016-08-11T01:07:45.685Z,54.9
2016-08-11T01:07:54.959Z,55.2
2016-08-11T01:08:05.696Z,55.2
2016-08-11T01:08:15.701Z,54.9
2016-08-11T01:08:25.706Z,54.9
2016-08-11T01:08:35.712Z,54.9
2016-08-11T01:08:45.718Z,54.9
2016-08-11T01:08:55.724Z,55.2
2016-08-11T01:09:05.729Z,54.9
2016-08-11T01:09:15.736Z,55.1
2016-08-11T01:09:25.749Z,55.2
2016-08-11T01:09:35.745Z,55.2
2016-08-11T01:09:45.749Z,55.2
2016-08-11T01:09:55.756Z,55.1
2016-08-11T01:10:05.762Z,55
2016-08-11T01:10:15.769Z,55.1
2016-08-11T01:10:25.774Z,55.2
2016-08-11T01:10:35.781Z,55
2016-08-11T01:10:45.785Z,55.1
2016-08-11T01:10:55.792Z,55.1
2016-08-11T01:11:05.800Z,54.9
2016-08-11T01:11:15.800Z,55.2
2016-08-11T01:11:25.807Z,54.9
2016-08-11T01:11:35.812Z,55.2
2016-08-11T01:11:45.816Z,55.1
2016-08-11T01:11:55.824Z,55
2016-08-11T01:12:05.835Z,55.2
2016-08-11T01:12:15.835Z,55.2
2016-08-11T01:12:25.840Z,55.2
2016-08-11T01:12:35.846Z,55
2016-08-11T01:12:45.855Z,55.1
2016-08-11T01:12:55.858Z,55.3
2016-08-11T01:13:05.862Z,55.2
2016-08-11T01:13:15.867Z,55
2016-08-11T01:13:35.879Z,55
2016-08-11T01:13:45.884Z,55
2016-08-11T01:13:55.889Z,55.2
2016-08-11T01:14:05.901Z,55
2016-08-11T01:14:15.900Z,55.1
2016-08-11T01:14:25.910Z,55.3
2016-08-11T01:14:35.913Z,55.2
2016-08-11T01:14:45.920Z,55
2016-08-11T01:14:55.922Z,55
2016-08-11T01:15:05.930Z,55
2016-08-11T01:15:15.935Z,55.1
2016-08-11T01:15:25.939Z,55.1
2016-08-11T01:15:35.944Z,55.1
2016-08-11T01:15:45.953Z,55.2
2016-08-11T01:15:55.958Z,55.1
2016-08-11T01:16:05.965Z,55
2016-08-11T01:16:15.969Z,55
2016-08-11T01:16:25.973Z,55
2016-08-11T01:16:35.978Z,55
2016-08-11T01:16:45.984Z,55.3
2016-08-11T01:16:55.999Z,55
2016-08-11T01:17:05.997Z,55
2016-08-11T01:17:16.005Z,55
2016-08-11T01:17:26.006Z,55
2016-08-11T01:17:36.018Z,55.2
2016-08-11T01:17:45.289Z,55
2016-08-11T01:17:56.022Z,55.2
2016-08-11T01:18:06.031Z,55.3
2016-08-11T01:18:16.046Z,54.9
2016-08-11T01:18:26.043Z,55.3
2016-08-11T01:18:36.046Z,55.3
2016-08-11T01:18:46.052Z,55.1
2016-08-11T01:18:56.062Z,55.3
2016-08-11T01:19:06.063Z,55.3
2016-08-11T01:19:16.068Z,55.1
2016-08-11T01:19:26.075Z,55.2
2016-08-11T01:19:36.080Z,55.1
2016-08-11T01:19:46.085Z,54.8
2016-08-11T01:19:56.095Z,54.9
2016-08-11T01:20:06.097Z,55.1
2016-08-11T01:20:16.103Z,55.3
2016-08-11T01:20:26.108Z,55.2
2016-08-11T01:20:36.113Z,54.9
2016-08-11T01:20:46.120Z,55.2
2016-08-11T01:20:56.125Z,55
2016-08-11T01:21:06.137Z,55
2016-08-11T01:21:15.411Z,55
2016-08-11T01:21:26.146Z,54.9
2016-08-11T01:21:36.147Z,55.2
2016-08-11T01:21:46.153Z,55.1
2016-08-11T01:21:56.159Z,55.1
2016-08-11T01:22:06.163Z,55.1
2016-08-11T01:22:16.168Z,55
2016-08-11T01:22:26.176Z,55
2016-08-11T01:22:36.182Z,55.2
2016-08-11T01:22:46.191Z,55.1
2016-08-11T01:22:56.198Z,55
2016-08-11T01:23:06.196Z,55.1
2016-08-11T01:23:16.203Z,54.9
2016-08-11T01:23:26.213Z,54.8
2016-08-11T01:23:36.214Z,55.2
2016-08-11T01:23:46.221Z,55.3
2016-08-11T01:23:56.225Z,54.9
2016-08-11T01:24:05.501Z,54.9
2016-08-11T01:24:16.236Z,55.3
2016-08-11T01:24:26.244Z,54.8
2016-08-11T01:24:35.518Z,54.8
2016-08-11T01:24:46.253Z,54.8
2016-08-11T01:24:56.259Z,54.8
2016-08-11T01:25:06.265Z,55.1
2016-08-11T01:25:16.270Z,55
2016-08-11T01:25:26.275Z,55.2
2016-08-11T01:25:36.283Z,54.8
2016-08-11T01:25:46.285Z,54.8
2016-08-11T01:25:56.301Z,55
2016-08-11T01:26:06.299Z,54.9
2016-08-11T01:26:16.302Z,54.9
2016-08-11T01:26:26.310Z,54.8
2016-08-11T01:26:36.317Z,55.3
2016-08-11T01:26:46.320Z,55.3
2016-08-11T01:26:56.327Z,55.1
2016-08-11T01:27:06.331Z,55.2
2016-08-11T01:27:16.337Z,55.3
2016-08-11T01:27:26.342Z,55.3
2016-08-11T01:27:36.352Z,54.9
2016-08-11T01:27:46.353Z,54.9
2016-08-11T01:27:56.360Z,54.9
2016-08-11T01:28:06.367Z,54.9
2016-08-11T01:28:16.372Z,54.9
2016-08-11T01:28:36.384Z,54.9
2016-08-11T01:28:46.395Z,54.9
2016-08-11T01:28:56.391Z,54.9
2016-08-11T01:29:06.399Z,54.9
2016-08-11T01:29:16.407Z,55
2016-08-11T01:29:26.416Z,54.9
2016-08-11T01:29:36.414Z,54.9
2016-08-11T01:29:46.421Z,54.9
2016-08-11T01:29:56.427Z,54.9
2016-08-11T01:30:06.432Z,54.9
2016-08-11T01:30:16.436Z,54.9
2016-08-11T01:30:26.446Z,55.2
2016-08-11T01:30:35.720Z,54.9
2016-08-11T01:30:46.453Z,54.7
2016-08-11T01:30:56.461Z,54.7
2016-08-11T01:31:06.463Z,54.8
2016-08-11T01:31:16.471Z,54.7
2016-08-11T01:31:25.747Z,54.8
2016-08-11T01:31:36.482Z,54.6
2016-08-11T01:31:46.487Z,55
2016-08-11T01:31:56.494Z,55.1
2016-08-11T01:32:06.503Z,55
2016-08-11T01:32:16.505Z,54.6
2016-08-11T01:32:26.512Z,55.1
2016-08-11T01:32:36.516Z,54.6
2016-08-11T01:32:45.790Z,54.9
2016-08-11T01:32:56.527Z,54.7
2016-08-11T01:33:06.536Z,54.7
2016-08-11T01:33:16.539Z,55.1
2016-08-11T01:33:26.546Z,55.2
2016-08-11T01:33:36.552Z,54.6
2016-08-11T01:33:46.554Z,54.9
2016-08-11T01:33:56.560Z,55.1
2016-08-11T01:34:06.565Z,54.6
2016-08-11T01:34:16.569Z,54.7
2016-08-11T01:34:26.578Z,54.7
2016-08-11T01:34:36.591Z,54.9
2016-08-11T01:34:46.587Z,55.2
2016-08-11T01:34:55.862Z,55.2
2016-08-11T01:35:06.597Z,54.9
2016-08-11T01:35:15.875Z,54.9
2016-08-11T01:35:26.611Z,54.9
2016-08-11T01:35:36.616Z,54.9
2016-08-11T01:35:46.624Z,55.1
2016-08-11T01:35:56.630Z,55
2016-08-11T01:36:06.632Z,55.1
2016-08-11T01:36:15.908Z,55.1
2016-08-11T01:36:26.645Z,54.9
2016-08-11T01:36:36.651Z,54.9
2016-08-11T01:36:46.654Z,54.9
2016-08-11T01:36:56.663Z,54.8
2016-08-11T01:37:06.666Z,54.8
2016-08-11T01:37:16.675Z,54.9
2016-08-11T01:37:26.676Z,55.1
2016-08-11T01:37:36.683Z,54.9
2016-08-11T01:37:46.687Z,54.9
2016-08-11T01:37:56.694Z,54.6
2016-08-11T01:38:06.699Z,54.8
2016-08-11T01:38:16.706Z,55.1
2016-08-11T01:38:26.724Z,55.1
2016-08-11T01:38:36.718Z,54.7
2016-08-11T01:38:46.728Z,54.9
2016-08-11T01:38:56.728Z,55
2016-08-11T01:39:06.002Z,54.9
2016-08-11T01:39:16.738Z,55
2016-08-11T01:39:26.743Z,54.9
2016-08-11T01:39:36.749Z,55.2
2016-08-11T01:39:46.756Z,55.1
2016-08-11T01:39:56.761Z,55.2
2016-08-11T01:40:06.765Z,55
2016-08-11T01:40:16.771Z,55.2
2016-08-11T01:40:26.782Z,55
2016-08-11T01:40:36.784Z,55.1
2016-08-11T01:40:46.791Z,54.7
2016-08-11T01:40:56.794Z,54.9
2016-08-11T01:41:06.801Z,55.2
2016-08-11T01:41:16.807Z,55
2016-08-11T01:41:26.812Z,54.9
2016-08-11T01:41:36.819Z,55
2016-08-11T01:41:46.825Z,54.6
2016-08-11T01:41:56.097Z,54.6
2016-08-11T01:42:06.103Z,55.1
2016-08-11T01:42:16.840Z,54.7
2016-08-11T01:42:26.846Z,55.1
2016-08-11T01:42:36.849Z,54.7
2016-08-11T01:42:46.857Z,54.7
2016-08-11T01:42:56.861Z,54.8
2016-08-11T01:43:06.867Z,54.7
2016-08-11T01:43:16.873Z,54.8
2016-08-11T01:43:36.886Z,54.7
2016-08-11T01:43:46.892Z,55
2016-08-11T01:43:56.895Z,54.7
2016-08-11T01:44:06.900Z,54.5
2016-08-11T01:44:16.907Z,54.9
2016-08-11T01:44:26.913Z,54.9
2016-08-11T01:44:36.918Z,54.9
2016-08-11T01:44:46.923Z,54.8
2016-08-11T01:44:56.931Z,54.5
2016-08-11T01:45:06.933Z,54.7
2016-08-11T01:45:16.938Z,54.7
2016-08-11T01:45:26.944Z,54.7
2016-08-11T01:45:36.951Z,54.6
2016-08-11T01:45:46.234Z,54.7
2016-08-11T01:45:56.960Z,54.7
2016-08-11T01:46:06.968Z,54.5
2016-08-11T01:46:16.972Z,54.7
2016-08-11T01:46:26.978Z,54.7
2016-08-11T01:46:36.987Z,54.7
2016-08-11T01:46:46.989Z,54.3
2016-08-11T01:46:56.996Z,54.6
2016-08-11T01:47:07.007Z,54.9
2016-08-11T01:47:17.005Z,54.6
2016-08-11T01:47:27.012Z,54.6
2016-08-11T01:47:37.014Z,54.6
2016-08-11T01:47:47.032Z,54.7
2016-08-11T01:47:57.028Z,54.8
2016-08-11T01:48:07.033Z,54.5
2016-08-11T01:48:17.039Z,54.7
2016-08-11T01:48:27.046Z,54.7
2016-08-11T01:48:37.055Z,54.7
2016-08-11T01:48:46.329Z,54.6
2016-08-11T01:48:57.066Z,54.8
2016-08-11T01:49:07.073Z,54.6
2016-08-11T01:49:17.080Z,54.7
2016-08-11T01:49:27.079Z,54.7
2016-08-11T01:49:37.085Z,54.7
2016-08-11T01:49:47.090Z,54.6
2016-08-11T01:49:57.098Z,54.6
2016-08-11T01:50:07.101Z,54.6
2016-08-11T01:50:17.107Z,54.7
2016-08-11T01:50:27.112Z,54.6
2016-08-11T01:50:37.118Z,54.6
2016-08-11T01:50:47.127Z,54.4
2016-08-11T01:50:57.130Z,54.8
2016-08-11T01:51:07.136Z,54.9
2016-08-11T01:51:17.143Z,54.8
2016-08-11T01:51:27.145Z,54.8
2016-08-11T01:51:37.151Z,54.9
2016-08-11T01:51:47.162Z,54.7
2016-08-11T01:51:56.433Z,54.7
2016-08-11T01:52:07.168Z,54.9
2016-08-11T01:52:17.181Z,54.8
2016-08-11T01:52:27.178Z,54.7
2016-08-11T01:52:37.185Z,54.6
2016-08-11T01:52:47.193Z,54.4
2016-08-11T01:52:57.202Z,54.6
2016-08-11T01:53:07.202Z,54.3
2016-08-11T01:53:17.212Z,54.4
2016-08-11T01:53:27.212Z,54.5
2016-08-11T01:53:37.218Z,54.5
2016-08-11T01:53:47.226Z,54.7
2016-08-11T01:53:57.233Z,54.9
2016-08-11T01:54:07.237Z,54.8
2016-08-11T01:54:17.242Z,55
2016-08-11T01:54:27.245Z,54.8
2016-08-11T01:54:37.250Z,54.8
2016-08-11T01:54:47.254Z,54.7
2016-08-11T01:54:57.261Z,54.8
2016-08-11T01:55:07.266Z,54.8
2016-08-11T01:55:17.273Z,54.9
2016-08-11T01:55:27.281Z,54.7
2016-08-11T01:55:37.284Z,54.8
2016-08-11T01:55:47.293Z,54.8
2016-08-11T01:55:57.299Z,54.7
2016-08-11T01:56:07.303Z,54.8
2016-08-11T01:56:17.307Z,54.7
2016-08-11T01:56:27.317Z,54.6
2016-08-11T01:56:37.318Z,54.8
2016-08-11T01:56:47.325Z,54.9
2016-08-11T01:56:57.329Z,54.7
2016-08-11T01:57:07.340Z,54.6
2016-08-11T01:57:17.340Z,54.8
2016-08-11T01:57:27.351Z,54.7
2016-08-11T01:57:37.351Z,54.8
2016-08-11T01:57:47.356Z,54.8
2016-08-11T01:57:57.361Z,54.4
2016-08-11T01:58:07.371Z,54.4
2016-08-11T01:58:17.372Z,54.5
2016-08-11T01:58:27.382Z,54.7
2016-08-11T01:58:47.391Z,54.7
2016-08-11T01:58:57.406Z,54.7
2016-08-11T01:59:07.402Z,54.6
2016-08-11T01:59:17.408Z,54.8
2016-08-11T01:59:27.420Z,54.6
2016-08-11T01:59:37.418Z,54.8
2016-08-11T01:59:47.424Z,54.5
2016-08-11T01:59:57.429Z,54.5
2016-08-11T02:00:07.437Z,54.6
2016-08-11T02:00:17.440Z,54.3
2016-08-11T02:00:26.715Z,54.3
2016-08-11T02:00:37.451Z,54.5
2016-08-11T02:00:47.458Z,54.5
2016-08-11T02:00:57.463Z,54.2
2016-08-11T02:01:07.470Z,54.5
2016-08-11T02:01:17.476Z,54.5
2016-08-11T02:01:27.478Z,54.5
2016-08-11T02:01:37.488Z,54.3
2016-08-11T02:01:47.490Z,54.5
2016-08-11T02:01:57.497Z,54.5
2016-08-11T02:02:07.502Z,54.4
2016-08-11T02:02:17.512Z,54.3
2016-08-11T02:02:27.515Z,54.3
2016-08-11T02:02:37.519Z,54.2
2016-08-11T02:02:47.552Z,54.4
2016-08-11T02:02:57.529Z,54.4
2016-08-11T02:03:07.533Z,54.4
2016-08-11T02:03:17.541Z,54.5
2016-08-11T02:03:27.547Z,54.3
2016-08-11T02:03:36.821Z,54.4
2016-08-11T02:03:47.557Z,54.4
2016-08-11T02:03:57.563Z,54.3
2016-08-11T02:04:07.568Z,54.3
2016-08-11T02:04:17.575Z,54.2
2016-08-11T02:04:27.576Z,54.6
2016-08-11T02:04:37.587Z,54.6
2016-08-11T02:04:47.592Z,54.6
2016-08-11T02:04:57.596Z,54.5
2016-08-11T02:05:07.604Z,54.5
2016-08-11T02:05:17.610Z,54.5
2016-08-11T02:05:27.618Z,54.5
2016-08-11T02:05:37.619Z,54.6
2016-08-11T02:05:47.625Z,54.3
2016-08-11T02:05:56.902Z,54.4
2016-08-11T02:06:07.638Z,54.6
2016-08-11T02:06:17.642Z,54.5
2016-08-11T02:06:27.648Z,54.5
2016-08-11T02:06:37.652Z,54.6
2016-08-11T02:06:47.669Z,54.5
2016-08-11T02:06:57.663Z,54.3
2016-08-11T02:07:07.668Z,54.6
2016-08-11T02:07:17.674Z,54.6
2016-08-11T02:07:27.683Z,54.4
2016-08-11T02:07:37.685Z,54.5
2016-08-11T02:07:47.692Z,54.5
2016-08-11T02:07:57.698Z,54.5
2016-08-11T02:08:07.702Z,54.5
2016-08-11T02:08:17.709Z,54.6
2016-08-11T02:08:27.716Z,55
2016-08-11T02:08:37.725Z,54.7
2016-08-11T02:08:47.727Z,54.8
2016-08-11T02:08:57.731Z,54.7
2016-08-11T02:09:07.737Z,54.7
2016-08-11T02:09:17.756Z,54.8
2016-08-11T02:09:27.750Z,54.8
2016-08-11T02:09:37.753Z,54.6
2016-08-11T02:09:47.759Z,54.6
2016-08-11T02:09:57.764Z,54.9
2016-08-11T02:10:07.769Z,54.3
2016-08-11T02:10:17.779Z,54.8
2016-08-11T02:10:27.780Z,54.7
2016-08-11T02:10:37.793Z,54.7
2016-08-11T02:10:47.791Z,54.6
2016-08-11T02:10:57.799Z,54.8
2016-08-11T02:11:07.810Z,54.8
2016-08-11T02:11:17.813Z,54.7
2016-08-11T02:11:27.817Z,54.9
2016-08-11T02:11:37.819Z,54.4
2016-08-11T02:11:47.825Z,54.7
2016-08-11T02:11:57.844Z,54.7
2016-08-11T02:12:07.838Z,54.8
2016-08-11T02:12:17.842Z,54.4
2016-08-11T02:12:27.846Z,54.6
2016-08-11T02:12:37.853Z,54.5
2016-08-11T02:12:47.858Z,54.6
2016-08-11T02:12:57.864Z,54.5
2016-08-11T02:13:07.873Z,54.4
2016-08-11T02:13:17.876Z,54.5
2016-08-11T02:13:27.879Z,54.6
2016-08-11T02:13:47.890Z,54.5
2016-08-11T02:13:57.899Z,54.4
2016-08-11T02:14:07.902Z,54.5
2016-08-11T02:14:17.907Z,54.5
2016-08-11T02:14:27.913Z,54.5
2016-08-11T02:14:37.920Z,54.5
2016-08-11T02:14:47.924Z,54.6
2016-08-11T02:14:57.929Z,54.8
2016-08-11T02:15:07.936Z,54.9
2016-08-11T02:15:17.942Z,54.4
2016-08-11T02:15:27.952Z,54.5